Time;durP1;ratioP1;P1;durP2;ratioP2;P2;SDS_P1;SDS_P2;PMS_P1;PMS_P2;Temp;Humidity;BMP_temperature;BMP_pressure;BME280_temperature;BME280_humidity;BME280_pressure;Samples;Min_cycle;Max_cycle;Signal;HPM_P1;HPM_P2
2022/07/23 00:02:06;;;;;;;22.42;14.10;;;20.50;99.90;;;;;;5008961;28;20099;-83
2022/07/23 00:04:33;;;;;;;24.15;15.98;;;20.40;99.90;;;;;;5009875;28;20041;-84
2022/07/23 00:06:58;;;;;;;23.53;15.23;;;20.40;99.90;;;;;;5007883;28;20509;-84
2022/07/23 00:09:24;;;;;;;21.33;14.57;;;20.40;99.90;;;;;;5009787;28;20069;-84
2022/07/23 00:11:50;;;;;;;19.83;14.48;;;20.50;99.90;;;;;;5009781;28;20489;-84
2022/07/23 00:14:16;;;;;;;20.25;14.52;;;20.40;99.90;;;;;;5009699;28;20099;-83
2022/07/23 00:16:41;;;;;;;25.08;15.25;;;20.40;99.90;;;;;;5008104;28;20531;-83
2022/07/23 00:19:07;;;;;;;20.38;14.23;;;20.40;99.90;;;;;;5008190;28;20052;-83
2022/07/23 00:21:33;;;;;;;21.60;15.25;;;20.30;99.90;;;;;;5009620;28;20029;-83
2022/07/23 00:23:59;;;;;;;19.42;13.68;;;20.10;99.90;;;;;;5009932;28;20354;-83
2022/07/23 00:26:24;;;;;;;18.52;14.18;;;20.20;99.90;;;;;;5009547;28;20026;-83
2022/07/23 00:28:50;;;;;;;20.00;15.18;;;20.20;99.90;;;;;;5009766;28;20448;-83
2022/07/23 00:31:16;;;;;;;22.17;14.32;;;20.20;99.90;;;;;;5008062;28;20026;-83
2022/07/23 00:33:42;;;;;;;19.33;14.38;;;20.30;99.90;;;;;;5009343;28;20112;-83
2022/07/23 00:36:09;;;;;;;23.10;14.15;;;20.20;99.90;;;;;;5024318;28;20057;-83
2022/07/23 00:38:34;;;;;;;20.33;15.07;;;20.10;99.90;;;;;;5024611;28;20030;-83
2022/07/23 00:41:00;;;;;;;19.52;15.07;;;20.10;99.90;;;;;;5009371;28;20029;-83
2022/07/23 00:43:26;;;;;;;21.60;15.20;;;20.00;99.90;;;;;;5009530;28;20082;-82
2022/07/23 00:45:52;;;;;;;21.20;14.80;;;20.00;99.90;;;;;;5009547;28;20477;-83
2022/07/23 00:48:17;;;;;;;20.65;14.68;;;20.00;99.90;;;;;;5007944;28;20022;-83
2022/07/23 00:50:44;;;;;;;20.80;14.73;;;19.90;99.90;;;;;;5009070;28;20065;-83
2022/07/23 00:53:11;;;;;;;22.08;14.60;;;19.80;99.90;;;;;;5009322;28;20184;-83
2022/07/23 00:55:37;;;;;;;24.67;15.00;;;19.80;99.90;;;;;;5008008;28;20789;-83
2022/07/23 00:58:04;;;;;;;20.80;15.38;;;19.70;99.90;;;;;;5009197;28;20038;-83
2022/07/23 01:00:30;;;;;;;19.90;13.15;;;19.80;99.90;;;;;;5009349;28;20022;-83
2022/07/23 01:02:56;;;;;;;22.65;14.02;;;19.70;99.90;;;;;;5009027;28;20109;-83
2022/07/23 01:05:22;;;;;;;18.02;14.07;;;19.80;99.90;;;;;;5008833;28;20088;-83
2022/07/23 01:07:49;;;;;;;23.50;15.05;;;19.80;99.90;;;;;;5009024;28;20046;-82
2022/07/23 01:10:30;;;;;;;18.90;13.27;;;19.80;99.90;;;;;;5009414;28;20022;-83
2022/07/23 01:13:05;;;;;;;16.77;13.13;;;19.70;99.90;;;;;;5009137;28;20108;-83
2022/07/23 01:15:32;;;;;;;22.17;14.75;;;19.60;99.90;;;;;;5009031;28;20029;-83
2022/07/23 01:17:58;;;;;;;;;;;19.70;99.90;;;;;;5009309;28;20135;-83
2022/07/23 01:20:23;;;;;;;20.80;14.77;;;19.60;99.90;;;;;;5023934;28;20369;-82
2022/07/23 01:22:50;;;;;;;18.45;13.88;;;19.60;99.90;;;;;;5008976;28;20149;-82
2022/07/23 01:25:16;;;;;;;19.20;13.18;;;19.50;99.90;;;;;;5023955;28;20026;-83
2022/07/23 01:27:42;;;;;;;17.10;13.50;;;19.50;99.90;;;;;;5011068;28;20034;-83
2022/07/23 01:30:09;;;;;;;20.20;13.85;;;19.50;99.90;;;;;;5012698;28;20399;-83
2022/07/23 01:32:35;;;;;;;24.03;15.30;;;19.50;99.90;;;;;;5012675;28;20064;-83
2022/07/23 01:35:00;;;;;;;20.52;14.70;;;19.50;99.90;;;;;;5012613;28;20336;-83
2022/07/23 01:37:26;;;;;;;21.58;14.13;;;19.50;99.90;;;;;;5012275;28;20034;-83
2022/07/23 01:39:52;;;;;;;21.65;14.15;;;19.60;99.90;;;;;;5012751;28;20092;-83
2022/07/23 01:42:17;;;;;;;22.80;15.18;;;19.50;99.90;;;;;;5012642;28;20431;-83
2022/07/23 01:44:43;;;;;;;22.73;14.75;;;19.60;99.90;;;;;;5012434;28;20130;-83
2022/07/23 01:47:09;;;;;;;17.80;13.38;;;19.50;99.90;;;;;;5012023;28;20022;-83
2022/07/23 01:49:35;;;;;;;19.88;13.30;;;19.50;99.90;;;;;;5027620;28;20577;-83
2022/07/23 01:52:00;;;;;;;23.00;14.27;;;19.40;99.90;;;;;;5012798;28;20022;-83
2022/07/23 01:54:32;;;;;;;21.27;15.48;;;19.40;99.90;;;;;;5010778;28;20042;-83
2022/07/23 01:56:59;;;;;;;19.80;13.38;;;19.30;99.90;;;;;;5012324;28;20030;-84
2022/07/23 01:59:26;;;;;;;20.80;13.05;;;19.30;99.90;;;;;;5012100;28;20084;-84
2022/07/23 02:01:52;;;;;;;21.40;13.77;;;19.20;99.90;;;;;;5027299;28;20133;-84
2022/07/23 02:04:22;;;;;;;18.20;14.38;;;19.20;99.90;;;;;;5012476;28;20105;-84
2022/07/23 02:06:48;;;;;;;26.85;13.65;;;19.20;99.90;;;;;;5012254;28;20077;-84
2022/07/23 02:09:14;;;;;;;17.30;14.05;;;19.10;99.90;;;;;;5012182;28;20571;-84
2022/07/23 02:11:40;;;;;;;19.10;13.80;;;19.10;99.90;;;;;;5012318;28;20036;-84
2022/07/23 02:14:06;;;;;;;24.35;14.85;;;19.10;99.90;;;;;;5010552;28;20065;-84
2022/07/23 02:16:32;;;;;;;22.92;14.25;;;19.10;99.90;;;;;;5012272;28;20060;-84
2022/07/23 02:18:57;;;;;;;22.88;14.15;;;19.00;99.90;;;;;;5011850;28;20101;-85
2022/07/23 02:21:23;;;;;;;22.17;14.95;;;19.00;99.90;;;;;;5035836;23;20037;-58
2022/07/23 02:23:49;;;;;;;21.23;14.75;;;18.80;99.90;;;;;;5032788;28;20083;-57
2022/07/23 02:26:14;;;;;;;19.27;14.70;;;18.80;99.90;;;;;;5033266;28;20510;-56
2022/07/23 02:28:40;;;;;;;21.63;14.30;;;18.80;99.90;;;;;;5033150;28;20424;-55
2022/07/23 02:31:06;;;;;;;19.88;14.23;;;18.80;99.90;;;;;;5033169;28;20021;-56
2022/07/23 02:33:33;;;;;;;22.92;15.50;;;18.90;99.90;;;;;;5033200;28;20109;-55
2022/07/23 02:35:59;;;;;;;20.07;14.63;;;19.00;99.90;;;;;;5033077;28;20041;-56
2022/07/23 02:38:25;;;;;;;23.60;15.88;;;18.90;99.90;;;;;;5032247;28;20083;-56
2022/07/23 02:40:51;;;;;;;22.08;15.18;;;19.00;99.90;;;;;;5033160;28;20457;-56
2022/07/23 02:43:17;;;;;;;22.15;15.32;;;18.90;99.90;;;;;;5032814;28;20072;-56
2022/07/23 02:45:42;;;;;;;22.13;15.38;;;18.70;99.90;;;;;;5032908;28;20034;-56
2022/07/23 02:48:08;;;;;;;22.05;15.77;;;18.60;99.90;;;;;;5032790;28;20026;-56
2022/07/23 02:50:34;;;;;;;20.30;15.48;;;18.50;99.90;;;;;;5032639;28;20482;-55
2022/07/23 02:52:59;;;;;;;18.73;15.60;;;18.40;99.90;;;;;;5032631;28;20072;-56
2022/07/23 02:55:25;;;;;;;21.15;14.82;;;18.40;99.90;;;;;;5032611;28;20435;-56
2022/07/23 02:57:51;;;;;;;20.75;15.30;;;18.30;99.90;;;;;;5032396;28;20105;-56
2022/07/23 03:00:16;;;;;;;21.90;15.38;;;18.40;99.90;;;;;;5031159;28;20080;-56
2022/07/23 03:02:42;;;;;;;18.77;14.40;;;18.40;99.90;;;;;;5032701;28;20029;-56
2022/07/23 03:05:08;;;;;;;22.15;16.65;;;18.40;99.90;;;;;;5032237;28;20029;-56
2022/07/23 03:07:34;;;;;;;21.70;13.70;;;18.20;99.90;;;;;;5032294;28;20079;-56
2022/07/23 03:09:59;;;;;;;21.08;14.35;;;18.40;99.90;;;;;;5032285;28;20033;-56
2022/07/23 03:12:25;;;;;;;18.52;13.55;;;18.40;99.90;;;;;;5047417;28;20026;-56
2022/07/23 03:14:51;;;;;;;20.55;13.95;;;18.40;99.90;;;;;;5032299;28;20037;-56
2022/07/23 03:17:17;;;;;;;25.75;15.93;;;18.60;99.90;;;;;;5032061;28;20032;-56
2022/07/23 03:19:42;;;;;;;20.50;15.30;;;18.50;99.90;;;;;;5032244;28;20035;-56
2022/07/23 03:22:08;;;;;;;20.38;15.30;;;18.50;99.90;;;;;;5031838;28;20056;-56
2022/07/23 03:27:18;;;;;;;22.98;15.23;;;18.50;99.90;;;;;;5032173;28;20041;-56
2022/07/23 03:29:44;;;;;;;26.08;15.55;;;18.50;99.90;;;;;;5031805;28;20022;-55
2022/07/23 03:32:09;;;;;;;20.00;14.82;;;18.60;99.90;;;;;;5030756;28;20039;-55
2022/07/23 03:34:35;;;;;;;21.13;13.75;;;18.70;99.90;;;;;;5031676;28;20392;-56
2022/07/23 03:37:02;;;;;;;23.73;15.05;;;18.60;99.90;;;;;;5031843;28;20024;-56
2022/07/23 03:39:27;;;;;;;20.75;13.95;;;18.60;99.90;;;;;;5031603;28;20112;-56
2022/07/23 03:41:53;;;;;;;22.17;14.93;;;18.50;99.90;;;;;;5031957;28;20583;-56
2022/07/23 03:44:19;;;;;;;20.40;15.20;;;18.50;99.90;;;;;;5031920;28;20029;-57
2022/07/23 03:46:44;;;;;;;19.17;15.25;;;18.40;99.90;;;;;;5031588;28;20021;-56
2022/07/23 03:49:10;;;;;;;23.83;14.80;;;18.40;99.90;;;;;;5031589;28;20037;-57
2022/07/23 03:51:36;;;;;;;20.85;15.40;;;18.40;99.90;;;;;;5030608;28;20025;-56
2022/07/23 03:54:01;;;;;;;18.02;14.85;;;18.50;99.90;;;;;;5031222;28;20060;-56
2022/07/23 03:56:27;;;;;;;51.90;16.15;;;18.50;99.90;;;;;;5031360;28;20025;-56
2022/07/23 03:58:52;;;;;;;24.02;15.45;;;18.60;99.90;;;;;;5031538;28;20469;-56
2022/07/23 04:01:18;;;;;;;34.63;15.75;;;18.60;99.90;;;;;;5031178;28;20084;-55
2022/07/23 04:03:44;;;;;;;28.02;16.00;;;18.70;99.90;;;;;;5031275;28;20021;-55
2022/07/23 04:06:09;;;;;;;22.38;16.02;;;18.70;99.90;;;;;;5031272;28;20033;-55
2022/07/23 04:08:35;;;;;;;21.42;15.82;;;18.80;99.90;;;;;;5031099;28;20462;-55
2022/07/23 04:11:01;;;;;;;20.63;16.02;;;18.90;99.90;;;;;;5031030;28;20063;-55
2022/07/23 04:13:27;;;;;;;21.63;16.48;;;18.90;99.90;;;;;;5031033;28;20025;-55
2022/07/23 04:15:52;;;;;;;20.98;15.13;;;18.80;99.90;;;;;;5031188;28;20045;-56
2022/07/23 04:18:18;;;;;;;24.55;16.88;;;18.90;99.90;;;;;;5030970;28;20712;-55
2022/07/23 04:20:44;;;;;;;22.23;15.27;;;19.00;99.90;;;;;;5030977;28;20108;-55
2022/07/23 04:23:12;;;;;;;19.38;15.13;;;19.10;99.90;;;;;;5030737;28;20057;-56
2022/07/23 04:25:38;;;;;;;23.45;15.70;;;19.20;99.90;;;;;;5031003;28;20053;-55
2022/07/23 04:28:03;;;;;;;21.60;15.90;;;19.10;99.90;;;;;;5030957;28;20755;-56
2022/07/23 04:30:29;;;;;;;21.83;15.82;;;19.10;99.90;;;;;;5030874;28;20465;-56
2022/07/23 04:32:55;;;;;;;23.55;17.77;;;19.20;99.90;;;;;;5030763;28;20481;-56
2022/07/23 04:35:21;;;;;;;22.77;16.20;;;19.20;99.90;;;;;;5030615;28;20069;-55
2022/07/23 04:37:46;;;;;;;22.30;16.83;;;19.10;99.90;;;;;;5030666;28;20063;-56
2022/07/23 04:40:13;;;;;;;22.88;16.38;;;19.00;99.90;;;;;;5030837;28;20026;-56
2022/07/23 04:42:39;;;;;;;18.70;15.27;;;19.20;99.90;;;;;;5030894;28;20017;-56
2022/07/23 04:45:06;;;;;;;25.23;16.17;;;19.30;99.90;;;;;;5030643;28;20553;-56
2022/07/23 04:47:32;;;;;;;24.00;15.70;;;19.40;99.90;;;;;;5030652;28;20391;-56
2022/07/23 04:49:57;;;;;;;20.65;16.33;;;19.50;99.90;;;;;;5030544;28;20655;-56
2022/07/23 04:52:23;;;;;;;24.98;15.82;;;19.60;99.90;;;;;;5030519;28;20079;-56
2022/07/23 04:54:49;;;;;;;21.20;16.10;;;19.70;99.90;;;;;;5030474;28;20065;-56
2022/07/23 04:57:15;;;;;;;22.23;15.80;;;19.70;99.90;;;;;;5030668;28;20515;-55
2022/07/23 04:59:41;;;;;;;22.23;16.20;;;19.70;99.90;;;;;;5029355;28;20494;-56
2022/07/23 05:02:06;;;;;;;21.77;15.18;;;19.80;99.90;;;;;;5031828;28;20100;-56
2022/07/23 05:04:32;;;;;;;23.52;16.35;;;19.80;99.90;;;;;;5034507;28;20037;-56
2022/07/23 05:06:58;;;;;;;21.17;15.70;;;19.90;99.90;;;;;;5034545;28;20163;-56
2022/07/23 05:09:24;;;;;;;22.35;17.27;;;20.00;99.90;;;;;;5034571;28;20461;-56
2022/07/23 05:11:49;;;;;;;24.60;17.83;;;20.00;99.90;;;;;;5034511;28;20021;-55
2022/07/23 05:14:15;;;;;;;27.95;18.38;;;20.10;99.90;;;;;;5034549;28;20037;-56
2022/07/23 05:16:41;;;;;;;26.00;18.42;;;20.20;99.90;;;;;;5034312;28;20065;-56
2022/07/23 05:19:07;;;;;;;24.00;18.50;;;20.20;99.90;;;;;;5034367;28;20038;-56
2022/07/23 05:21:33;;;;;;;27.90;20.35;;;20.30;99.90;;;;;;5034050;28;20527;-56
2022/07/23 05:23:59;;;;;;;29.10;19.58;;;20.50;99.90;;;;;;5034220;28;20029;-56
2022/07/23 05:26:25;;;;;;;25.25;18.63;;;20.60;99.90;;;;;;5034072;28;20029;-55
2022/07/23 05:28:51;;;;;;;27.00;20.80;;;20.70;99.90;;;;;;5034090;28;20539;-56
2022/07/23 05:31:17;;;;;;;28.77;19.40;;;20.70;99.90;;;;;;5034220;28;20026;-55
2022/07/23 05:33:43;;;;;;;31.40;19.88;;;20.80;99.90;;;;;;5033995;28;20087;-56
2022/07/23 05:36:09;;;;;;;32.72;20.45;;;20.90;99.90;;;;;;5033931;28;20049;-56
2022/07/23 05:38:34;;;;;;;32.78;20.67;;;21.10;99.90;;;;;;5034139;28;20425;-55
2022/07/23 05:41:00;;;;;;;37.33;19.75;;;21.10;99.90;;;;;;5033812;28;20464;-56
2022/07/23 05:43:26;;;;;;;31.40;19.48;;;21.20;99.90;;;;;;5033803;28;20049;-56
2022/07/23 05:45:53;;;;;;;34.10;21.63;;;21.30;99.90;;;;;;5049113;28;20063;-55
2022/07/23 05:48:19;;;;;;;30.73;21.10;;;21.40;99.90;;;;;;5033830;28;20037;-56
2022/07/23 05:50:45;;;;;;;33.45;19.85;;;21.60;99.90;;;;;;5033711;28;20362;-56
2022/07/23 05:53:10;;;;;;;31.17;19.45;;;21.60;99.90;;;;;;5033654;28;20469;-56
2022/07/23 05:55:36;;;;;;;34.13;18.55;;;21.70;99.90;;;;;;5033603;28;20045;-56
2022/07/23 05:58:02;;;;;;;29.50;21.35;;;21.80;99.90;;;;;;5033721;28;20029;-56
2022/07/23 06:00:28;;;;;;;34.72;20.95;;;21.90;99.90;;;;;;5033492;28;20541;-56
2022/07/23 06:02:54;;;;;;;25.67;19.17;;;21.90;99.90;;;;;;5033644;28;20068;-56
2022/07/23 06:05:19;;;;;;;26.30;18.73;;;22.10;99.90;;;;;;5033369;28;20025;-56
2022/07/23 06:07:45;;;;;;;26.85;18.98;;;22.30;99.90;;;;;;5033366;28;20041;-56
2022/07/23 06:10:11;;;;;;;26.13;17.08;;;22.30;99.90;;;;;;5033261;28;20022;-55
2022/07/23 06:12:37;;;;;;;28.45;17.65;;;22.50;99.90;;;;;;5033367;28;20026;-56
2022/07/23 06:15:04;;;;;;;31.00;17.25;;;22.60;99.90;;;;;;5032174;28;20873;-56
2022/07/23 06:17:29;;;;;;;24.30;18.30;;;22.70;99.90;;;;;;5048416;28;20171;-55
2022/07/23 06:19:55;;;;;;;33.97;20.25;;;22.80;99.90;;;;;;5033178;28;20108;-56
2022/07/23 06:22:22;;;;;;;29.67;19.15;;;22.90;99.90;;;;;;5032974;28;20041;-56
2022/07/23 06:24:48;;;;;;;27.50;18.17;;;22.90;99.90;;;;;;5033286;28;20083;-56
2022/07/23 06:27:14;;;;;;;29.27;19.73;;;23.00;99.90;;;;;;5033076;28;20025;-56
2022/07/23 06:29:40;;;;;;;31.27;18.92;;;23.10;99.90;;;;;;5033032;28;20099;-56
2022/07/23 06:32:06;;;;;;;29.70;19.80;;;23.30;99.90;;;;;;5033075;28;20615;-56
2022/07/23 06:34:33;;;;;;;24.67;19.20;;;23.30;99.90;;;;;;5032892;28;20045;-56
2022/07/23 06:36:59;;;;;;;24.58;17.98;;;23.40;99.90;;;;;;5032851;28;20472;-56
2022/07/23 06:39:24;;;;;;;38.20;19.85;;;23.40;99.90;;;;;;5032985;28;20162;-56
2022/07/23 06:41:50;;;;;;;28.08;19.23;;;23.50;99.90;;;;;;5032769;28;20466;-57
2022/07/23 06:44:16;;;;;;;29.15;19.35;;;23.70;99.90;;;;;;5032891;28;20587;-56
2022/07/23 06:46:42;;;;;;;25.55;18.35;;;23.80;99.90;;;;;;5032671;28;20041;-56
2022/07/23 06:49:07;;;;;;;25.20;17.35;;;24.00;99.90;;;;;;5031401;28;20033;-56
2022/07/23 06:51:34;;;;;;;23.42;16.92;;;24.10;99.90;;;;;;5032700;28;20035;-56
2022/07/23 06:53:59;;;;;;;25.95;16.88;;;24.30;99.90;;;;;;5032509;28;20029;-56
2022/07/23 06:56:25;;;;;;;23.70;17.42;;;24.40;99.90;;;;;;5032556;28;20044;-56
2022/07/23 06:58:51;;;;;;;29.92;18.98;;;24.50;99.90;;;;;;5033107;28;20411;-58
2022/07/23 07:01:17;;;;;;;23.23;16.38;;;24.60;99.90;;;;;;5032609;28;20103;-56
2022/07/23 07:03:43;;;;;;;23.20;15.82;;;24.80;99.90;;;;;;5032384;28;20069;-56
2022/07/23 07:06:09;;;;;;;25.48;17.33;;;24.90;99.90;;;;;;5032347;28;20104;-56
2022/07/23 07:08:34;;;;;;;23.17;17.58;;;25.10;99.90;;;;;;5032348;28;20029;-56
2022/07/23 07:11:00;;;;;;;23.58;16.10;;;25.30;99.90;;;;;;5032105;28;20508;-56
2022/07/23 07:13:26;;;;;;;28.88;18.48;;;25.50;99.90;;;;;;5032347;28;20025;-56
2022/07/23 07:15:51;;;;;;;26.05;18.40;;;25.40;99.90;;;;;;5032071;28;20440;-56
2022/07/23 07:18:17;;;;;;;23.27;16.65;;;25.60;99.90;;;;;;5031725;28;20033;-56
2022/07/23 07:20:43;;;;;;;24.88;16.65;;;25.90;99.90;;;;;;5032195;28;20056;-56
2022/07/23 07:23:08;;;;;;;25.65;17.52;;;26.00;99.90;;;;;;5031883;28;20136;-56
2022/07/23 07:25:34;;;;;;;23.48;17.08;;;26.00;99.90;;;;;;5031707;28;20034;-56
2022/07/23 07:28:00;;;;;;;22.58;17.10;;;26.10;99.90;;;;;;5031913;28;20036;-56
2022/07/23 07:30:26;;;;;;;23.13;16.00;;;26.10;99.90;;;;;;5032024;28;20025;-56
2022/07/23 07:32:52;;;;;;;26.55;18.55;;;26.10;99.90;;;;;;5031743;28;20059;-56
2022/07/23 07:35:18;;;;;;;22.17;16.48;;;26.10;99.90;;;;;;5031613;28;20480;-56
2022/07/23 07:37:43;;;;;;;24.80;16.63;;;26.20;99.90;;;;;;5031924;28;20084;-56
2022/07/23 07:40:09;;;;;;;20.25;16.48;;;26.40;99.90;;;;;;5031750;28;20036;-57
2022/07/23 07:42:43;;;;;;;25.73;18.15;;;26.40;99.90;;;;;;5031620;28;20057;-56
2022/07/23 07:45:09;;;;;;;27.92;18.88;;;26.60;99.90;;;;;;5031509;28;20087;-56
2022/07/23 07:47:35;;;;;;;23.42;16.63;;;26.80;99.90;;;;;;5031351;28;20416;-56
2022/07/23 07:50:01;;;;;;;26.33;16.83;;;26.80;99.90;;;;;;5031638;28;20030;-56
2022/07/23 07:52:26;;;;;;;23.67;15.98;;;26.70;99.90;;;;;;5031553;28;20025;-57
2022/07/23 07:54:52;;;;;;;26.27;15.57;;;26.80;99.90;;;;;;5031326;28;20481;-56
2022/07/23 07:57:18;;;;;;;23.52;16.73;;;26.80;99.90;;;;;;5031343;28;20026;-56
2022/07/23 07:59:43;;;;;;;23.00;17.13;;;27.10;99.90;;;;;;5031282;28;20492;-56
2022/07/23 08:02:09;;;;;;;22.80;16.98;;;27.10;99.90;;;;;;5031178;28;20108;-56
2022/07/23 08:04:35;;;;;;;24.55;14.73;;;27.10;99.90;;;;;;5031392;28;20032;-56
2022/07/23 08:07:00;;;;;;;23.17;16.60;;;27.40;99.90;;;;;;5031307;28;20485;-56
2022/07/23 08:09:26;;;;;;;23.52;15.40;;;27.50;99.90;;;;;;5031252;28;20053;-58
2022/07/23 08:11:52;;;;;;;20.13;15.38;;;27.80;99.60;;;;;;5031210;28;20036;-57
2022/07/23 08:14:18;;;;;;;19.85;14.07;;;28.10;99.20;;;;;;5030993;28;20037;-56
2022/07/23 08:16:44;;;;;;;15.77;13.00;;;28.30;98.10;;;;;;5030903;28;20036;-56
2022/07/23 08:19:09;;;;;;;16.90;12.57;;;28.70;96.70;;;;;;5031092;28;20612;-56
2022/07/23 08:21:35;;;;;;;16.40;10.85;;;28.50;93.60;;;;;;5031046;28;20408;-56
2022/07/23 08:24:01;;;;;;;18.83;11.30;;;28.80;92.20;;;;;;5031234;28;20037;-56
2022/07/23 08:26:26;;;;;;;16.20;10.43;;;28.60;91.50;;;;;;5030724;28;20464;-56
2022/07/23 08:28:52;;;;;;;15.82;10.20;;;28.90;90.60;;;;;;5030910;28;20029;-56
2022/07/23 08:31:18;;;;;;;16.08;9.88;;;29.00;88.20;;;;;;5030785;28;20025;-56
2022/07/23 08:33:44;;;;;;;16.17;9.83;;;29.20;89.50;;;;;;5030963;28;20029;-56
2022/07/23 08:36:10;;;;;;;15.57;11.35;;;29.30;86.10;;;;;;5030206;28;20222;-56
2022/07/23 08:38:35;;;;;;;13.90;9.52;;;29.20;85.20;;;;;;5030526;28;20017;-56
2022/07/23 08:41:01;;;;;;;20.40;10.10;;;29.20;83.40;;;;;;5030846;28;20029;-57
2022/07/23 08:43:30;;;;;;;14.33;9.07;;;29.50;83.70;;;;;;5030576;28;20051;-56
2022/07/23 08:45:58;;;;;;;15.55;9.88;;;29.50;85.10;;;;;;5030495;28;20272;-56
2022/07/23 08:48:29;;;;;;;14.05;8.75;;;29.60;81.60;;;;;;5030782;28;20064;-56
2022/07/23 08:50:59;;;;;;;14.80;8.70;;;29.70;80.40;;;;;;5030502;28;20473;-56
2022/07/23 08:53:26;;;;;;;11.05;8.15;;;29.60;79.00;;;;;;5030605;28;20025;-56
2022/07/23 08:55:55;;;;;;;11.27;8.57;;;29.60;74.20;;;;;;5030436;28;20034;-56
2022/07/23 08:58:21;;;;;;;11.50;7.93;;;29.70;75.80;;;;;;5030351;28;20349;-56
2022/07/23 09:00:48;;;;;;;13.90;9.13;;;29.60;75.40;;;;;;5030600;28;20072;-56
2022/07/23 09:03:25;;;;;;;16.05;8.02;;;29.90;77.20;;;;;;5030698;28;20030;-56
2022/07/23 09:05:53;;;;;;;12.93;7.35;;;29.90;72.20;;;;;;5030413;28;20049;-57
2022/07/23 09:08:21;;;;;;;10.48;7.05;;;29.70;72.20;;;;;;5030528;28;20014;-56
2022/07/23 09:11:02;;;;;;;12.98;6.90;;;30.00;74.20;;;;;;5030631;28;20029;-57
2022/07/23 09:13:39;;;;;;;13.32;8.10;;;30.30;69.40;;;;;;5030348;28;20029;-57
2022/07/23 09:16:12;;;;;;;16.40;7.60;;;30.20;72.60;;;;;;5030231;28;20044;-57
2022/07/23 09:18:40;;;;;;;12.65;8.30;;;30.10;69.10;;;;;;5030337;28;20029;-57
2022/07/23 09:21:14;;;;;;;9.57;7.80;;;30.10;68.20;;;;;;5030125;28;20483;-57
2022/07/23 09:23:51;;;;;;;13.50;7.75;;;30.20;67.00;;;;;;5030247;28;20124;-57
2022/07/23 09:26:24;;;;;;;9.73;6.68;;;30.20;67.80;;;;;;5045570;28;20037;-57
2022/07/23 09:28:53;;;;;;;12.35;8.23;;;30.40;71.10;;;;;;5030155;28;20022;-56
2022/07/23 09:31:20;;;;;;;12.40;8.07;;;30.60;64.50;;;;;;5030191;28;20388;-57
2022/07/23 09:33:45;;;;;;;14.85;7.82;;;30.60;70.30;;;;;;5030079;28;20105;-56
2022/07/23 09:36:11;;;;;;;11.48;8.23;;;31.00;64.80;;;;;;5030387;28;20132;-57
2022/07/23 09:38:49;;;;;;;8.85;6.63;;;31.00;65.20;;;;;;5030249;28;20595;-57
2022/07/23 09:41:15;;;;;;;9.35;6.35;;;30.60;62.70;;;;;;5030212;28;20033;-57
2022/07/23 09:43:41;;;;;;;8.52;7.18;;;30.60;62.40;;;;;;5030193;28;20100;-57
2022/07/23 09:46:27;;;;;;;9.32;6.10;;;30.50;60.90;;;;;;5029955;28;20132;-57
2022/07/23 09:48:56;;;;;;;15.20;7.43;;;30.50;59.90;;;;;;5032671;28;20060;-57
2022/07/23 09:51:38;;;;;;;9.38;6.72;;;30.50;60.80;;;;;;5033821;28;20030;-56
2022/07/23 09:54:04;;;;;;;11.30;7.50;;;30.50;61.80;;;;;;5033733;28;20037;-57
2022/07/23 09:56:32;;;;;;;11.07;7.67;;;30.60;62.20;;;;;;5033628;28;20053;-56
2022/07/23 09:59:12;;;;;;;10.52;7.10;;;30.50;63.50;;;;;;5033484;28;20064;-57
2022/07/23 10:01:39;;;;;;;10.23;6.90;;;30.50;63.20;;;;;;5033698;28;20033;-56
2022/07/23 10:04:07;;;;;;;13.38;7.13;;;30.60;64.30;;;;;;5033489;28;20029;-56
2022/07/23 10:06:34;;;;;;;9.68;7.20;;;30.60;62.10;;;;;;5033552;28;20034;-57
2022/07/23 10:09:01;;;;;;;9.57;7.25;;;30.60;62.50;;;;;;5033301;28;20029;-56
2022/07/23 10:11:27;;;;;;;;;;;30.70;65.50;;;;;;5033772;28;20469;-56
2022/07/23 10:14:01;;;;;;;12.18;8.30;;;30.70;64.20;;;;;;5033205;28;19909;-57
2022/07/23 10:16:27;;;;;;;9.95;7.13;;;31.00;65.10;;;;;;5033515;28;20113;-57
2022/07/23 10:18:52;;;;;;;9.07;7.22;;;31.20;68.10;;;;;;5048595;28;20494;-56
2022/07/23 10:21:49;;;;;;;12.25;7.68;;;31.30;71.80;;;;;;5033143;28;20083;-56
2022/07/23 10:24:24;;;;;;;11.73;7.32;;;31.40;70.80;;;;;;5031162;28;20037;-56
2022/07/23 10:27:10;;;;;;;13.77;8.50;;;31.60;65.50;;;;;;5033076;28;20018;-57
2022/07/23 10:30:04;;;;;;;8.10;6.68;;;31.60;64.20;;;;;;5032946;28;20026;-56
2022/07/23 10:32:33;;;;;;;12.82;6.30;;;31.50;59.30;;;;;;5032900;28;20034;-56
2022/07/23 10:35:36;;;;;;;9.48;5.78;;;31.50;59.70;;;;;;5032840;28;20425;-56
2022/07/23 10:38:11;;;;;;;11.38;6.80;;;31.50;58.70;;;;;;5032972;28;20029;-56
2022/07/23 10:40:36;;;;;;;9.80;6.28;;;31.40;58.20;;;;;;5032892;28;20018;-55
2022/07/23 10:43:15;;;;;;;9.63;6.28;;;31.70;58.40;;;;;;5032730;28;20562;-56
2022/07/23 10:45:41;;;;;;;11.60;6.93;;;31.80;60.70;;;;;;5032581;28;20029;-56
2022/07/23 10:48:21;;;;;;;15.60;7.17;;;32.20;65.10;;;;;;5032717;28;20113;-57
2022/07/23 10:51:08;;;;;;;9.85;6.60;;;32.10;59.70;;;;;;5047694;28;20025;-56
2022/07/23 10:53:53;;;;;;;8.70;7.32;;;32.30;58.50;;;;;;5032371;28;20037;-56
2022/07/23 10:56:51;;;;;;;11.52;6.80;;;32.20;57.40;;;;;;5032632;28;20033;-56
2022/07/23 10:59:18;;;;;;;7.97;6.43;;;32.10;58.60;;;;;;5032047;28;20029;-57
2022/07/23 11:01:43;;;;;;;11.23;6.82;;;32.30;59.30;;;;;;5032658;28;20033;-56
2022/07/23 11:04:10;;;;;;;8.70;7.20;;;32.50;57.50;;;;;;5032629;28;20048;-56
2022/07/23 11:06:48;;;;;;;;;;;32.40;57.50;;;;;;5032728;28;20389;-56
2022/07/23 11:09:39;;;;;;;9.73;6.70;;;32.90;58.10;;;;;;5032337;28;20317;-56
2022/07/23 11:12:15;;;;;;;9.90;6.65;;;33.10;56.80;;;;;;5032357;28;20033;-56
2022/07/23 11:15:06;;;;;;;12.65;6.78;;;33.20;59.00;;;;;;5032132;28;20038;-56
2022/07/23 11:17:37;;;;;;;12.63;6.82;;;33.40;54.30;;;;;;5032248;28;20163;-57
2022/07/23 11:20:09;;;;;;;8.75;6.28;;;33.00;55.60;;;;;;5032038;28;20033;-56
2022/07/23 11:22:44;;;;;;;7.40;5.85;;;33.00;55.30;;;;;;5031921;28;20049;-56
2022/07/23 11:25:27;;;;;;;10.23;6.43;;;33.20;55.80;;;;;;5031991;28;20096;-55
2022/07/23 11:27:53;;;;;;;9.93;7.15;;;33.30;54.60;;;;;;5032017;28;20037;-55
2022/07/23 11:30:28;;;;;;;8.30;6.83;;;33.00;54.80;;;;;;5031767;28;20030;-55
2022/07/23 11:33:14;;;;;;;9.15;7.97;;;32.90;55.70;;;;;;5031802;28;20400;-55
2022/07/23 11:35:42;;;;;;;10.60;6.72;;;32.90;56.80;;;;;;5031619;28;20033;-55
2022/07/23 11:38:30;;;;;;;11.45;7.60;;;33.00;56.30;;;;;;5031799;28;20035;-56
2022/07/23 11:40:58;;;;;;;7.85;6.65;;;33.00;58.00;;;;;;5031673;28;20033;-56
2022/07/23 11:43:24;;;;;;;9.80;6.18;;;33.00;55.80;;;;;;5031869;28;20045;-55
2022/07/23 11:45:52;;;;;;;11.77;7.05;;;33.00;60.80;;;;;;5031640;28;20025;-55
2022/07/23 11:48:24;;;;;;;11.20;7.63;;;33.00;59.70;;;;;;5031404;28;20057;-55
2022/07/23 11:50:51;;;;;;;9.50;6.90;;;32.80;58.10;;;;;;5031542;28;20108;-56
2022/07/23 11:53:28;;;;;;;9.40;7.15;;;32.80;64.80;;;;;;5031488;28;20064;-55
2022/07/23 11:55:54;;;;;;;;;;;32.70;62.30;;;;;;5031772;28;20558;-55
2022/07/23 11:58:21;;;;;;;11.63;7.40;;;32.70;58.30;;;;;;5031523;28;20390;-56
2022/07/23 12:00:47;;;;;;;7.50;6.70;;;33.10;59.30;;;;;;5031319;28;20029;-55
2022/07/23 12:03:12;;;;;;;12.20;7.60;;;33.50;68.30;;;;;;5031346;28;20496;-56
2022/07/23 12:05:39;;;;;;;12.67;7.67;;;33.80;59.50;;;;;;5031083;28;20485;-56
2022/07/23 12:08:07;;;;;;;10.45;6.68;;;33.90;55.80;;;;;;5031534;28;20048;-55
2022/07/23 12:10:37;;;;;;;10.52;7.32;;;34.20;56.60;;;;;;5031143;28;20053;-55
2022/07/23 12:13:10;;;;;;;21.08;7.45;;;34.20;56.70;;;;;;5030659;28;20061;-56
2022/07/23 12:15:43;;;;;;;7.43;6.65;;;34.00;57.20;;;;;;5030888;28;20029;-56
2022/07/23 12:18:11;;;;;;;12.63;7.60;;;33.80;56.10;;;;;;5031034;28;20020;-57
2022/07/23 12:20:43;;;;;;;10.38;6.72;;;33.40;54.60;;;;;;5031157;28;20120;-56
2022/07/23 12:23:10;;;;;;;8.40;6.63;;;33.00;56.00;;;;;;5030920;28;20045;-56
2022/07/23 12:25:39;;;;;;;10.43;7.93;;;32.70;55.70;;;;;;5030930;28;20017;-56
2022/07/23 12:28:09;;;;;;;8.63;6.72;;;32.60;56.70;;;;;;5030915;28;20087;-57
2022/07/23 12:30:40;;;;;;;14.10;7.38;;;32.50;58.20;;;;;;5030801;28;20018;-57
2022/07/23 12:33:07;;;;;;;12.68;7.25;;;32.30;58.40;;;;;;5030878;28;20357;-57
2022/07/23 12:35:53;;;;;;;8.60;6.80;;;32.10;57.50;;;;;;5030671;28;20380;-57
2022/07/23 12:38:21;;;;;;;10.07;8.40;;;31.90;56.80;;;;;;5031208;28;20543;-57
2022/07/23 12:40:47;;;;;;;13.52;7.43;;;31.80;57.00;;;;;;5030632;28;20045;-56